Time;durP1;ratioP1;P1;durP2;ratioP2;P2;SDS_P1;SDS_P2;PMS_P1;PMS_P2;Temp;Humidity;BMP_temperature;BMP_pressure;BME280_temperature;BME280_humidity;BME280_pressure;Samples;Min_cycle;Max_cycle;Signal;HPM_P1;HPM_P2
2022/07/13 00:01:48;;;;;;;7.30;5.30;;;20.10;99.90;;;;;;5027511;28;20069;-74
2022/07/13 00:04:14;;;;;;;6.55;6.05;;;20.10;99.90;;;;;;5042486;28;20465;-75
2022/07/13 00:06:39;;;;;;;7.15;5.43;;;20.10;99.90;;;;;;5004564;28;20117;-74
2022/07/13 00:09:05;;;;;;;6.32;5.72;;;20.10;99.90;;;;;;5025769;28;20071;-76
2022/07/13 00:11:31;;;;;;;6.32;5.72;;;20.10;99.90;;;;;;5011048;28;20490;-75
2022/07/13 00:13:56;;;;;;;6.50;5.90;;;20.10;99.90;;;;;;5009703;28;20042;-75
2022/07/13 00:16:22;;;;;;;8.05;6.47;;;20.10;99.90;;;;;;5010969;28;20427;-75
2022/07/13 00:18:48;;;;;;;6.30;5.75;;;20.10;99.90;;;;;;5010278;28;20048;-75
2022/07/13 00:21:14;;;;;;;7.53;6.82;;;20.10;99.90;;;;;;5010335;28;20117;-75
2022/07/13 00:23:39;;;;;;;7.35;6.65;;;20.10;99.90;;;;;;5026244;28;20042;-75
2022/07/13 00:26:05;;;;;;;6.78;6.13;;;20.10;99.90;;;;;;5024585;28;20168;-75
2022/07/13 00:28:31;;;;;;;7.00;6.38;;;20.10;99.90;;;;;;4992670;28;20065;-74
2022/07/13 00:30:57;;;;;;;6.93;6.22;;;20.10;99.90;;;;;;4989737;28;20516;-73
2022/07/13 00:33:23;;;;;;;6.28;5.63;;;20.10;99.90;;;;;;5010566;28;20042;-73
2022/07/13 00:35:48;;;;;;;6.50;5.72;;;20.10;99.90;;;;;;4994122;28;20045;-74
2022/07/13 00:38:14;;;;;;;7.22;5.60;;;20.10;99.90;;;;;;5009979;28;20042;-74
2022/07/13 00:40:40;;;;;;;7.07;5.80;;;20.10;99.90;;;;;;5007623;28;20040;-74
2022/07/13 00:43:05;;;;;;;7.57;6.88;;;20.10;99.90;;;;;;5008431;28;20044;-74
2022/07/13 00:45:32;;;;;;;7.13;5.93;;;20.10;99.90;;;;;;5010008;28;20415;-74
2022/07/13 00:47:58;;;;;;;6.38;5.88;;;20.20;99.90;;;;;;5009811;28;20056;-74
2022/07/13 00:50:24;;;;;;;6.20;5.70;;;20.10;99.90;;;;;;5007338;28;20054;-74
2022/07/13 00:52:50;;;;;;;6.20;4.75;;;20.10;99.90;;;;;;5042535;28;20046;-74
2022/07/13 00:55:16;;;;;;;5.90;5.35;;;20.10;99.90;;;;;;5007984;28;20054;-74
2022/07/13 00:57:42;;;;;;;6.00;5.50;;;20.10;99.90;;;;;;5041274;28;20405;-74
2022/07/13 01:00:11;;;;;;;6.13;5.53;;;20.10;99.90;;;;;;5010171;28;20120;-74
2022/07/13 01:02:38;;;;;;;5.63;5.00;;;20.10;99.90;;;;;;5009796;28;20509;-75
2022/07/13 01:05:04;;;;;;;5.95;5.35;;;20.20;99.90;;;;;;5010433;28;20045;-75
2022/07/13 01:07:32;;;;;;;5.55;5.05;;;20.10;99.90;;;;;;5041582;28;20383;-74
2022/07/13 01:10:00;;;;;;;5.93;5.38;;;20.10;99.90;;;;;;5040671;28;20097;-74
2022/07/13 01:12:30;;;;;;;6.78;5.70;;;20.10;99.90;;;;;;4990605;28;20053;-74
2022/07/13 01:14:57;;;;;;;6.18;5.57;;;20.20;99.90;;;;;;5041071;28;20545;-74
2022/07/13 01:17:23;;;;;;;6.93;6.22;;;20.10;99.90;;;;;;5007089;28;20613;-74
2022/07/13 01:19:50;;;;;;;5.47;4.97;;;20.20;99.90;;;;;;5039410;28;20034;-73
2022/07/13 01:22:21;;;;;;;8.30;5.70;;;20.20;99.90;;;;;;5042827;28;20037;-76
2022/07/13 01:24:48;;;;;;;6.03;5.53;;;20.10;99.90;;;;;;5008721;28;20433;-75
2022/07/13 01:27:14;;;;;;;5.80;5.30;;;20.20;99.90;;;;;;5005883;28;20471;-75
2022/07/13 01:29:40;;;;;;;5.85;5.25;;;20.10;99.90;;;;;;5009491;28;20125;-73
2022/07/13 01:32:06;;;;;;;5.47;4.85;;;20.20;99.90;;;;;;5008150;28;20045;-73
2022/07/13 01:34:32;;;;;;;6.28;5.78;;;20.10;99.90;;;;;;4990994;28;20338;-73
2022/07/13 01:36:59;;;;;;;10.05;5.63;;;20.10;99.90;;;;;;5006919;28;20085;-73
2022/07/13 01:39:25;;;;;;;7.25;6.10;;;20.10;99.90;;;;;;5008012;28;20104;-73
2022/07/13 01:41:51;;;;;;;7.53;6.47;;;20.10;99.90;;;;;;5005546;28;20107;-73
2022/07/13 01:44:17;;;;;;;7.72;6.40;;;20.10;99.90;;;;;;5007895;28;20042;-74
2022/07/13 01:46:43;;;;;;;6.75;6.05;;;20.10;99.90;;;;;;5008019;28;20397;-74
2022/07/13 01:49:10;;;;;;;7.90;6.65;;;20.10;99.90;;;;;;5008226;28;20037;-74
2022/07/13 01:51:35;;;;;;;7.07;6.38;;;20.10;99.90;;;;;;5008164;28;20597;-74
2022/07/13 01:54:01;;;;;;;10.02;6.78;;;20.10;99.90;;;;;;5007079;28;20104;-74
2022/07/13 01:56:27;;;;;;;8.88;6.72;;;20.10;99.90;;;;;;5007969;28;20056;-73
2022/07/13 01:58:52;;;;;;;7.53;6.85;;;20.10;99.90;;;;;;5006476;28;20038;-73
2022/07/13 02:01:18;;;;;;;7.07;6.38;;;20.10;99.90;;;;;;5007450;28;20121;-73
2022/07/13 02:03:44;;;;;;;7.47;6.78;;;20.10;99.90;;;;;;5008227;28;20088;-73
2022/07/13 02:06:10;;;;;;;6.72;6.03;;;20.10;99.90;;;;;;5008131;28;20034;-74
2022/07/13 02:08:36;;;;;;;6.70;6.20;;;20.10;99.90;;;;;;5009605;28;20435;-74
2022/07/13 02:11:02;;;;;;;7.65;6.95;;;20.10;99.90;;;;;;5024763;28;20051;-73
2022/07/13 02:13:28;;;;;;;6.70;6.10;;;20.10;99.90;;;;;;5005472;28;20041;-73
2022/07/13 02:15:54;;;;;;;7.15;6.45;;;20.10;99.90;;;;;;5005793;28;20441;-73
2022/07/13 02:18:20;;;;;;;8.90;6.75;;;20.10;99.90;;;;;;5008050;28;20045;-73
2022/07/13 02:20:46;;;;;;;7.75;6.95;;;20.00;99.90;;;;;;5009518;28;20045;-73
2022/07/13 02:23:12;;;;;;;7.82;6.57;;;20.10;99.90;;;;;;5007462;28;20713;-74
2022/07/13 02:25:37;;;;;;;6.95;6.32;;;20.10;99.90;;;;;;5024935;28;20049;-74
2022/07/13 02:28:07;;;;;;;7.30;6.60;;;20.10;99.90;;;;;;5022731;28;20080;-73
2022/07/13 02:30:34;;;;;;;7.57;6.88;;;20.00;99.90;;;;;;5007123;28;20049;-73
2022/07/13 02:33:00;;;;;;;7.50;6.80;;;20.10;99.90;;;;;;5007387;28;20038;-73
2022/07/13 02:35:26;;;;;;;7.70;6.90;;;20.10;99.90;;;;;;5008336;28;20083;-74
2022/07/13 02:37:52;;;;;;;7.40;6.80;;;20.10;99.90;;;;;;5037562;28;20038;-73
2022/07/13 02:40:17;;;;;;;7.80;7.05;;;20.00;99.90;;;;;;5007542;28;20056;-74
2022/07/13 02:42:44;;;;;;;7.30;6.60;;;20.00;99.90;;;;;;5006234;28;20112;-74
2022/07/13 02:45:10;;;;;;;7.95;7.25;;;20.00;99.90;;;;;;5008685;28;20034;-74
2022/07/13 02:47:36;;;;;;;7.85;7.15;;;20.10;99.90;;;;;;5039887;28;20542;-74
2022/07/13 02:50:02;;;;;;;7.10;6.47;;;20.00;99.90;;;;;;4992470;28;20125;-74
2022/07/13 02:52:28;;;;;;;7.32;6.72;;;20.00;99.90;;;;;;5037483;28;20120;-73
2022/07/13 02:54:53;;;;;;;7.15;6.50;;;20.00;99.90;;;;;;5024546;28;20140;-73
2022/07/13 02:57:19;;;;;;;8.93;6.55;;;20.10;99.90;;;;;;5022215;28;20047;-73
2022/07/13 02:59:45;;;;;;;9.00;7.05;;;20.00;99.90;;;;;;5039806;28;20061;-73
2022/07/13 03:02:10;;;;;;;7.80;7.10;;;20.10;99.90;;;;;;5039562;28;20030;-73
2022/07/13 03:04:36;;;;;;;7.47;6.78;;;20.00;99.90;;;;;;5024903;28;20502;-73
2022/07/13 03:07:02;;;;;;;7.63;6.82;;;20.10;99.90;;;;;;5005440;28;20148;-73
2022/07/13 03:09:28;;;;;;;6.82;6.22;;;20.10;99.90;;;;;;5007270;28;20042;-73
2022/07/13 03:11:54;;;;;;;7.32;6.82;;;20.00;99.90;;;;;;5037076;28;20144;-73
2022/07/13 03:14:20;;;;;;;7.00;6.30;;;20.10;99.90;;;;;;5001870;28;20046;-73
2022/07/13 03:16:46;;;;;;;6.57;6.03;;;20.10;99.90;;;;;;5007436;28;20046;-73
2022/07/13 03:19:12;;;;;;;6.82;6.18;;;20.10;99.90;;;;;;5005512;28;20050;-73
2022/07/13 03:21:37;;;;;;;6.35;5.85;;;20.10;99.90;;;;;;5006141;28;20030;-74
2022/07/13 03:24:03;;;;;;;6.75;6.05;;;20.00;99.90;;;;;;5005999;28;20113;-74
2022/07/13 03:26:29;;;;;;;7.53;6.80;;;20.00;99.90;;;;;;5022733;28;20056;-73
2022/07/13 03:28:55;;;;;;;7.13;6.43;;;20.00;99.90;;;;;;5005631;28;20152;-72
2022/07/13 03:31:21;;;;;;;6.95;6.25;;;20.10;99.90;;;;;;5006760;28;20045;-74
2022/07/13 03:33:46;;;;;;;7.18;6.38;;;20.00;99.90;;;;;;5006204;28;20125;-73
2022/07/13 03:36:13;;;;;;;6.70;6.10;;;20.00;99.90;;;;;;5008024;28;20143;-73
2022/07/13 03:38:38;;;;;;;6.43;5.80;;;20.10;99.90;;;;;;5007578;28;20073;-73
2022/07/13 03:41:04;;;;;;;6.60;6.00;;;20.10;99.90;;;;;;5008009;28;20046;-73
2022/07/13 03:43:30;;;;;;;6.10;5.50;;;20.10;99.90;;;;;;5009782;28;20633;-73
2022/07/13 03:45:56;;;;;;;5.72;5.22;;;20.10;99.90;;;;;;5008137;28;20052;-73
2022/07/13 03:48:21;;;;;;;6.97;5.63;;;20.10;99.90;;;;;;5011941;28;20054;-73
2022/07/13 03:50:48;;;;;;;6.05;4.85;;;20.10;99.90;;;;;;5012515;28;20516;-74
2022/07/13 03:53:14;;;;;;;6.97;5.30;;;20.10;99.90;;;;;;5011635;28;20234;-74
2022/07/13 03:55:41;;;;;;;7.47;5.70;;;20.10;99.90;;;;;;5027256;28;20058;-74
2022/07/13 03:58:07;;;;;;;6.55;5.82;;;20.10;99.90;;;;;;5027142;28;20056;-74
2022/07/13 04:00:33;;;;;;;5.55;5.05;;;20.10;99.90;;;;;;5010628;28;20104;-74
2022/07/13 04:02:58;;;;;;;6.30;5.32;;;20.10;99.90;;;;;;5042814;28;20467;-73
2022/07/13 04:05:25;;;;;;;6.45;5.25;;;20.10;99.90;;;;;;5024703;28;20034;-73
2022/07/13 04:07:51;;;;;;;6.53;5.25;;;20.20;99.90;;;;;;5009037;28;20548;-73
2022/07/13 04:10:20;;;;;;;6.03;5.53;;;20.10;99.90;;;;;;5011452;28;20084;-73
2022/07/13 04:12:46;;;;;;;6.22;5.15;;;20.10;99.90;;;;;;5027148;28;20569;-73
2022/07/13 04:15:12;;;;;;;9.10;5.72;;;20.10;99.90;;;;;;5009805;28;20073;-73
2022/07/13 04:17:42;;;;;;;6.05;5.50;;;20.10;99.90;;;;;;5025999;28;20042;-73
2022/07/13 04:20:09;;;;;;;5.80;5.30;;;20.20;99.90;;;;;;5045453;28;20494;-74
2022/07/13 04:22:35;;;;;;;8.10;7.40;;;20.20;99.90;;;;;;5009554;28;20077;-73
2022/07/13 04:25:04;;;;;;;48.40;43.45;;;20.20;99.90;;;;;;5011156;28;20140;-74
2022/07/13 04:27:31;;;;;;;7.47;6.88;;;20.20;99.90;;;;;;5010273;28;20045;-73
2022/07/13 04:29:56;;;;;;;5.82;5.32;;;20.20;99.90;;;;;;5011626;28;20034;-73
2022/07/13 04:32:22;;;;;;;5.97;5.35;;;20.30;99.90;;;;;;5010951;28;20088;-73
2022/07/13 04:34:48;;;;;;;6.07;5.53;;;20.30;99.90;;;;;;5009675;28;20046;-73
2022/07/13 04:37:13;;;;;;;7.40;5.40;;;20.30;99.90;;;;;;5010282;28;20810;-73
2022/07/13 04:39:39;;;;;;;6.97;5.88;;;20.30;99.90;;;;;;5010028;28;20049;-73
2022/07/13 04:42:05;;;;;;;6.45;5.70;;;20.40;99.90;;;;;;5010279;28;20084;-73
2022/07/13 04:44:31;;;;;;;6.85;5.60;;;20.40;99.90;;;;;;5042117;28;20073;-73
2022/07/13 04:46:56;;;;;;;6.50;5.70;;;20.40;99.90;;;;;;5008767;28;20038;-74
2022/07/13 04:49:22;;;;;;;6.60;5.10;;;20.40;99.90;;;;;;5027423;28;20046;-73
2022/07/13 04:51:51;;;;;;;5.90;5.35;;;20.50;99.90;;;;;;5009860;28;20469;-74
2022/07/13 04:54:21;;;;;;;6.75;5.18;;;20.50;99.90;;;;;;5009204;28;20065;-74
2022/07/13 04:56:48;;;;;;;6.07;5.45;;;20.50;99.90;;;;;;5009568;28;20486;-74
2022/07/13 04:59:14;;;;;;;5.85;5.28;;;20.50;99.90;;;;;;5009659;28;20061;-74
2022/07/13 05:01:41;;;;;;;5.55;5.10;;;20.60;99.90;;;;;;5025954;28;20707;-74
2022/07/13 05:04:07;;;;;;;5.57;5.07;;;20.60;99.90;;;;;;5009295;28;20125;-74
2022/07/13 05:06:33;;;;;;;6.63;5.50;;;20.60;99.90;;;;;;4994376;28;20054;-75
2022/07/13 05:08:59;;;;;;;4.70;4.30;;;20.70;99.90;;;;;;5009293;28;20363;-74
2022/07/13 05:11:25;;;;;;;4.55;4.15;;;20.70;99.90;;;;;;5010593;28;20055;-74
2022/07/13 05:13:51;;;;;;;4.55;4.15;;;20.80;99.90;;;;;;5010914;28;20069;-74
2022/07/13 05:16:17;;;;;;;4.35;3.47;;;20.80;99.90;;;;;;5008864;28;20037;-74
2022/07/13 05:18:42;;;;;;;5.10;4.35;;;20.90;99.90;;;;;;4992465;28;20046;-74
2022/07/13 05:21:08;;;;;;;3.63;3.20;;;20.90;99.90;;;;;;5011074;28;20041;-74
2022/07/13 05:23:35;;;;;;;3.63;2.95;;;21.00;99.90;;;;;;5009969;28;20095;-75
2022/07/13 05:26:01;;;;;;;4.80;2.90;;;21.00;99.90;;;;;;5026817;28;20406;-73
2022/07/13 05:28:27;;;;;;;4.22;2.63;;;21.10;99.90;;;;;;5008724;28;20057;-74
2022/07/13 05:30:52;;;;;;;3.20;2.88;;;21.20;99.90;;;;;;5010014;28;20038;-73
2022/07/13 05:33:20;;;;;;;3.85;2.75;;;21.20;99.90;;;;;;5009428;28;20041;-74
2022/07/13 05:35:46;;;;;;;4.18;2.63;;;21.30;99.90;;;;;;5009608;28;20125;-74
2022/07/13 05:38:12;;;;;;;3.65;2.92;;;21.40;99.90;;;;;;5007086;28;20057;-75
2022/07/13 05:40:38;;;;;;;4.28;2.80;;;21.50;99.90;;;;;;5042703;28;20069;-74
2022/07/13 05:43:04;;;;;;;3.33;2.70;;;21.60;99.90;;;;;;5024683;28;20092;-74
2022/07/13 05:45:30;;;;;;;4.80;2.70;;;21.60;99.90;;;;;;5009222;28;20046;-74
2022/07/13 05:47:55;;;;;;;4.82;2.72;;;21.70;99.90;;;;;;5025179;28;20057;-74
2022/07/13 05:50:21;;;;;;;2.95;2.72;;;21.80;99.90;;;;;;5009489;28;20121;-74
2022/07/13 05:52:47;;;;;;;2.15;2.05;;;21.90;99.90;;;;;;5005091;28;20044;-75
2022/07/13 05:55:12;;;;;;;6.15;2.53;;;22.00;99.90;;;;;;5007103;28;20091;-76
2022/07/13 05:57:39;;;;;;;4.00;2.90;;;22.10;99.90;;;;;;4990938;28;20080;-74
2022/07/13 06:00:10;;;;;;;3.30;2.63;;;22.10;99.90;;;;;;5041117;28;20062;-75
2022/07/13 06:02:36;;;;;;;2.45;2.25;;;22.20;99.90;;;;;;5038412;28;20409;-75
2022/07/13 06:05:02;;;;;;;3.60;2.45;;;22.30;99.90;;;;;;5040786;28;20046;-76
2022/07/13 06:07:27;;;;;;;2.22;2.10;;;22.40;99.90;;;;;;5008185;28;20046;-76
2022/07/13 06:09:53;;;;;;;3.67;2.38;;;22.50;99.90;;;;;;5008279;28;20057;-75
2022/07/13 06:12:19;;;;;;;4.90;2.60;;;22.60;99.90;;;;;;5039184;28;20073;-75
2022/07/13 06:14:44;;;;;;;4.78;2.20;;;22.80;99.90;;;;;;5001466;28;20418;-75
2022/07/13 06:17:10;;;;;;;4.10;2.30;;;22.90;99.90;;;;;;5007900;28;20132;-75
2022/07/13 06:19:39;;;;;;;3.05;2.17;;;22.90;99.90;;;;;;5009252;28;20058;-76
2022/07/13 06:22:04;;;;;;;3.60;2.10;;;23.00;99.90;;;;;;5025404;28;20034;-76
2022/07/13 06:24:30;;;;;;;2.65;2.08;;;23.10;99.90;;;;;;5039414;28;20049;-75
2022/07/13 06:26:56;;;;;;;3.53;2.30;;;23.20;99.90;;;;;;5007367;28;20422;-75
2022/07/13 06:29:21;;;;;;;3.60;2.10;;;23.30;99.90;;;;;;5008918;28;20124;-75
2022/07/13 06:31:48;;;;;;;3.08;2.10;;;23.40;99.90;;;;;;5023773;28;20057;-75
2022/07/13 06:34:14;;;;;;;4.03;2.28;;;23.50;99.90;;;;;;5007054;28;20141;-75
2022/07/13 06:36:39;;;;;;;2.85;2.13;;;23.60;99.90;;;;;;5040285;28;20145;-76
2022/07/13 06:39:05;;;;;;;4.32;2.83;;;23.80;99.90;;;;;;5008186;28;20072;-75
2022/07/13 06:41:31;;;;;;;2.85;2.38;;;23.80;99.90;;;;;;5006992;28;20100;-75
2022/07/13 06:43:56;;;;;;;3.58;3.10;;;23.90;99.90;;;;;;5021055;28;20137;-75
2022/07/13 06:46:23;;;;;;;6.55;3.60;;;24.00;99.90;;;;;;5022759;28;20070;-75
2022/07/13 06:48:48;;;;;;;6.20;3.72;;;24.10;99.90;;;;;;5021940;28;20488;-75
2022/07/13 06:51:14;;;;;;;4.38;3.70;;;24.20;99.70;;;;;;5008693;28;20056;-75
2022/07/13 06:53:40;;;;;;;4.38;3.90;;;24.40;99.60;;;;;;5039774;28;20124;-75
2022/07/13 06:56:06;;;;;;;7.90;4.68;;;24.50;99.00;;;;;;5008784;28;20617;-75
2022/07/13 06:58:31;;;;;;;6.03;4.70;;;24.60;98.60;;;;;;5004502;28;20050;-75
2022/07/13 07:00:58;;;;;;;9.25;4.90;;;24.60;98.60;;;;;;5041394;28;20061;-75
2022/07/13 07:03:24;;;;;;;5.93;4.78;;;24.70;99.00;;;;;;5007658;28;20046;-76
2022/07/13 07:05:51;;;;;;;9.85;6.10;;;24.90;98.50;;;;;;5009108;28;20049;-76
2022/07/13 07:08:17;;;;;;;7.40;5.18;;;25.00;97.80;;;;;;5008494;28;20054;-75
2022/07/13 07:10:43;;;;;;;7.85;5.43;;;25.10;98.10;;;;;;5007587;28;20034;-75
2022/07/13 07:13:09;;;;;;;7.07;6.45;;;25.10;97.70;;;;;;5005944;28;20040;-75
2022/07/13 07:15:35;;;;;;;7.45;6.75;;;25.00;97.10;;;;;;4990879;28;20046;-75
2022/07/13 07:18:01;;;;;;;7.72;6.35;;;24.90;97.40;;;;;;4992398;28;20119;-75
2022/07/13 07:20:26;;;;;;;9.25;6.43;;;24.80;97.40;;;;;;5012372;28;20145;-74
2022/07/13 07:22:52;;;;;;;8.93;7.50;;;24.70;97.70;;;;;;4995108;28;20402;-76
2022/07/13 07:25:19;;;;;;;7.40;6.70;;;24.60;97.90;;;;;;4994972;28;20053;-67
2022/07/13 07:27:45;;;;;;;8.75;6.70;;;24.50;98.40;;;;;;5011812;28;20060;-68
2022/07/13 07:30:11;;;;;;;7.88;7.07;;;24.40;99.00;;;;;;5014260;28;20041;-67
2022/07/13 07:32:38;;;;;;;7.30;6.70;;;24.40;99.40;;;;;;5011889;28;20061;-67
2022/07/13 07:35:06;;;;;;;8.35;7.43;;;24.40;99.90;;;;;;5010482;28;20421;-67
2022/07/13 07:37:33;;;;;;;7.88;7.07;;;24.40;99.90;;;;;;5041822;28;20080;-67
2022/07/13 07:39:59;;;;;;;11.48;7.88;;;24.50;99.90;;;;;;5008456;28;20045;-67
2022/07/13 07:42:25;;;;;;;7.43;6.78;;;24.40;99.90;;;;;;5011747;28;20096;-67
2022/07/13 07:44:51;;;;;;;9.60;7.82;;;24.50;99.90;;;;;;5012101;28;20544;-67
2022/07/13 07:47:16;;;;;;;8.63;7.72;;;24.50;99.90;;;;;;5011295;28;20127;-67
2022/07/13 07:49:43;;;;;;;8.38;7.57;;;24.60;99.90;;;;;;5013501;28;20050;-67
2022/07/13 07:52:09;;;;;;;9.43;8.57;;;24.70;99.90;;;;;;5013104;28;20453;-67
2022/07/13 07:54:35;;;;;;;9.13;8.02;;;24.80;99.90;;;;;;5011351;28;20120;-68
2022/07/13 07:57:02;;;;;;;9.52;7.65;;;25.00;99.90;;;;;;5010578;28;20133;-68
2022/07/13 07:59:27;;;;;;;10.15;7.70;;;25.20;99.90;;;;;;5013326;28;20060;-68
2022/07/13 08:01:53;;;;;;;9.43;8.50;;;25.50;99.90;;;;;;5012646;28;20030;-68
2022/07/13 08:04:19;;;;;;;10.30;8.10;;;25.70;99.50;;;;;;5011582;28;20042;-68
2022/07/13 08:06:45;;;;;;;9.07;8.20;;;25.90;99.70;;;;;;5012102;28;20037;-68
2022/07/13 08:09:11;;;;;;;8.63;7.18;;;26.20;98.50;;;;;;5012827;28;20034;-68
2022/07/13 08:11:36;;;;;;;8.15;7.35;;;26.60;97.40;;;;;;5012053;28;20052;-68
2022/07/13 08:14:02;;;;;;;7.97;7.18;;;26.70;96.60;;;;;;5010111;28;20084;-68
2022/07/13 08:16:28;;;;;;;8.85;7.30;;;26.80;96.30;;;;;;5012623;28;20107;-69
2022/07/13 08:18:53;;;;;;;8.75;7.07;;;26.80;95.50;;;;;;5012890;28;20121;-68
2022/07/13 08:21:19;;;;;;;7.82;7.03;;;26.80;95.20;;;;;;5012635;28;20033;-69
2022/07/13 08:23:50;;;;;;;7.55;6.85;;;26.80;95.80;;;;;;5009242;28;20474;-69
2022/07/13 08:26:17;;;;;;;7.80;6.07;;;27.10;95.30;;;;;;5011622;28;20034;-69
2022/07/13 08:28:44;;;;;;;7.18;6.05;;;27.60;94.80;;;;;;5010985;28;20113;-69
2022/07/13 08:31:11;;;;;;;6.85;6.05;;;28.00;94.00;;;;;;5012620;28;20054;-69
2022/07/13 08:39:06;;;;;;;6.68;5.53;;;29.10;91.60;;;;;;5012362;28;20592;-69
2022/07/13 08:41:32;;;;;;;8.80;5.75;;;29.40;91.20;;;;;;5012104;28;20045;-69
2022/07/13 08:44:01;;;;;;;4.60;4.03;;;29.60;90.40;;;;;;5009291;28;20045;-69
2022/07/13 08:46:27;;;;;;;6.93;4.63;;;29.80;88.00;;;;;;5043121;28;20132;-69
2022/07/13 08:48:55;;;;;;;6.53;4.40;;;29.80;86.60;;;;;;5011188;28;20137;-69
2022/07/13 08:51:22;;;;;;;8.85;6.22;;;29.90;85.60;;;;;;5011622;28;20406;-69
2022/07/13 08:53:52;;;;;;;6.07;5.00;;;30.10;82.50;;;;;;5009804;28;20085;-69
2022/07/13 08:56:18;;;;;;;5.32;4.57;;;30.20;83.20;;;;;;5012203;28;20155;-69
2022/07/13 08:58:44;;;;;;;5.18;4.40;;;30.40;83.60;;;;;;5010595;28;20053;-69
2022/07/13 09:01:11;;;;;;;5.10;4.35;;;30.40;80.90;;;;;;5011305;28;20417;-69
2022/07/13 09:03:37;;;;;;;5.63;4.07;;;30.40;81.50;;;;;;5009943;28;20112;-69
2022/07/13 09:06:03;;;;;;;5.95;5.40;;;30.50;80.80;;;;;;5011868;28;20049;-69
2022/07/13 09:08:29;;;;;;;5.15;4.68;;;30.70;80.20;;;;;;5012156;28;20112;-69
2022/07/13 09:11:00;;;;;;;7.93;5.07;;;30.90;77.90;;;;;;5010944;28;20124;-69
2022/07/13 09:13:33;;;;;;;6.53;4.57;;;30.80;76.00;;;;;;5008916;28;20053;-69
2022/07/13 09:16:19;;;;;;;4.45;4.05;;;30.70;74.60;;;;;;5008249;28;20164;-69
2022/07/13 09:18:56;;;;;;;6.68;4.28;;;30.70;74.80;;;;;;5010002;28;20153;-69
2022/07/13 09:21:23;;;;;;;4.82;3.90;;;30.70;76.10;;;;;;5010430;28;20113;-69
2022/07/13 09:23:57;;;;;;;6.90;3.70;;;30.70;76.80;;;;;;5042952;28;20052;-69
2022/07/13 09:26:23;;;;;;;6.53;4.32;;;30.90;75.60;;;;;;5011487;28;20080;-69
2022/07/13 09:28:50;;;;;;;5.05;3.70;;;30.90;75.30;;;;;;5008244;28;20042;-69
2022/07/13 09:31:17;;;;;;;4.57;4.10;;;31.00;76.70;;;;;;5009823;28;20038;-69
2022/07/13 09:33:45;;;;;;;4.80;3.65;;;31.10;73.00;;;;;;5011016;28;20084;-69
2022/07/13 09:36:11;;;;;;;6.95;3.83;;;31.10;74.70;;;;;;5012679;28;20087;-69
2022/07/13 09:38:45;;;;;;;5.20;3.70;;;31.10;73.50;;;;;;5007961;28;20128;-69
2022/07/13 09:41:21;;;;;;;4.70;4.05;;;31.20;72.30;;;;;;5009917;28;20034;-69
2022/07/13 09:46:47;;;;;;;4.63;3.20;;;31.20;70.80;;;;;;5010920;28;20101;-69
2022/07/13 09:49:16;;;;;;;5.40;3.47;;;31.20;71.90;;;;;;5010061;28;20049;-69
2022/07/13 09:51:44;;;;;;;6.55;3.50;;;31.40;73.30;;;;;;5012621;28;20124;-69
2022/07/13 09:54:11;;;;;;;6.30;3.83;;;31.70;72.20;;;;;;5011903;28;20502;-69
2022/07/13 09:56:43;;;;;;;4.70;3.85;;;31.90;70.80;;;;;;5010393;28;20485;-69
2022/07/13 09:59:09;;;;;;;3.47;2.63;;;31.90;67.00;;;;;;5010023;28;20050;-69
2022/07/13 10:01:35;;;;;;;3.70;2.88;;;31.80;68.40;;;;;;5011264;28;20038;-69
2022/07/13 10:04:02;;;;;;;4.22;2.95;;;31.90;68.70;;;;;;5011786;28;20073;-69
2022/07/13 10:06:28;;;;;;;4.45;2.80;;;32.10;68.20;;;;;;5009530;28;20046;-69
2022/07/13 10:08:54;;;;;;;5.50;2.95;;;32.10;65.80;;;;;;5011961;28;20046;-69
2022/07/13 10:11:20;;;;;;;3.45;2.10;;;32.10;65.60;;;;;;5011902;28;20429;-69
2022/07/13 10:13:46;;;;;;;6.22;2.40;;;32.20;65.20;;;;;;5008477;28;20050;-69
2022/07/13 10:16:12;;;;;;;2.42;1.60;;;32.00;64.20;;;;;;5010212;28;20029;-69
2022/07/13 10:18:41;;;;;;;2.53;1.90;;;31.90;65.00;;;;;;5008859;28;20525;-69
2022/07/13 10:21:21;;;;;;;3.15;1.52;;;31.90;63.30;;;;;;5009674;28;20088;-69
2022/07/13 10:23:47;;;;;;;2.55;1.40;;;31.90;61.20;;;;;;5010310;28;20042;-69
2022/07/13 10:26:24;;;;;;;3.67;1.25;;;31.90;61.30;;;;;;5039414;28;20049;-69
2022/07/13 10:29:04;;;;;;;3.05;1.30;;;32.10;60.60;;;;;;5005111;28;20386;-69
2022/07/13 10:31:33;;;;;;;3.35;1.13;;;31.90;58.30;;;;;;5010773;28;20095;-69
2022/07/13 10:34:03;;;;;;;2.30;0.80;;;31.70;59.50;;;;;;5009685;28;20037;-69
2022/07/13 10:36:57;;;;;;;3.47;0.80;;;31.80;58.20;;;;;;5010835;28;20038;-69
2022/07/13 10:39:25;;;;;;;1.88;0.90;;;31.80;54.80;;;;;;5008781;28;20061;-69
2022/07/13 10:42:04;;;;;;;2.70;1.00;;;31.80;57.20;;;;;;5007492;28;20065;-69
2022/07/13 10:44:43;;;;;;;2.28;0.70;;;31.60;55.60;;;;;;5007253;28;20121;-69
2022/07/13 10:47:12;;;;;;;2.70;0.80;;;31.50;56.20;;;;;;5009144;28;20516;-69
2022/07/13 10:49:51;;;;;;;2.95;0.77;;;31.60;55.60;;;;;;5010318;28;20033;-69
2022/07/13 10:52:25;;;;;;;3.10;0.85;;;31.70;56.70;;;;;;5014091;28;20037;-69
2022/07/13 10:55:13;;;;;;;2.35;0.80;;;31.90;55.30;;;;;;5010573;28;20709;-68
2022/07/13 10:57:42;;;;;;;2.85;0.70;;;32.10;55.40;;;;;;5011635;28;20482;-68
2022/07/13 11:00:18;;;;;;;1.95;0.70;;;32.40;54.80;;;;;;5012675;28;20045;-68
2022/07/13 11:02:50;;;;;;;3.20;0.70;;;32.70;53.70;;;;;;5006812;28;20072;-67
2022/07/13 11:05:21;;;;;;;2.95;0.73;;;32.90;53.70;;;;;;5013491;28;20038;-67
2022/07/13 11:07:48;;;;;;;5.78;0.80;;;33.10;49.90;;;;;;5010865;28;20042;-67
2022/07/13 11:10:22;;;;;;;3.40;0.80;;;32.90;48.70;;;;;;5014449;28;20397;-69
2022/07/13 11:13:09;;;;;;;2.80;0.70;;;32.50;48.90;;;;;;5008411;28;20050;-68
2022/07/13 11:15:56;;;;;;;1.58;0.60;;;32.20;49.10;;;;;;5013398;28;20076;-68
2022/07/13 11:18:22;;;;;;;1.48;0.52;;;32.30;50.30;;;;;;5013803;28;20050;-68
2022/07/13 11:21:16;;;;;;;1.90;0.60;;;32.40;50.10;;;;;;5014309;28;20049;-68
2022/07/13 11:26:55;;;;;;;2.53;0.80;;;32.50;51.50;;;;;;5012350;28;20052;-68
2022/07/13 11:29:48;;;;;;;1.77;0.73;;;32.80;50.30;;;;;;5013128;28;20446;-69
2022/07/13 11:32:13;;;;;;;2.25;0.60;;;32.70;50.20;;;;;;5013285;28;20042;-69
2022/07/13 11:34:42;;;;;;;1.88;0.75;;;32.70;51.00;;;;;;5014258;28;20116;-68
2022/07/13 11:37:08;;;;;;;2.75;1.00;;;32.70;48.30;;;;;;5010766;28;20046;-69
2022/07/13 11:39:35;;;;;;;2.58;0.75;;;32.20;49.20;;;;;;5012606;28;20042;-69
2022/07/13 11:42:05;;;;;;;2.13;0.65;;;32.20;49.40;;;;;;5011245;28;20421;-75
2022/07/13 11:44:32;;;;;;;3.85;0.85;;;32.50;49.30;;;;;;5026821;28;20060;-76
2022/07/13 11:47:01;;;;;;;2.00;0.75;;;32.30;47.90;;;;;;5011273;28;20079;-76
2022/07/13 11:49:27;;;;;;;2.88;0.90;;;32.10;48.00;;;;;;5009819;28;20091;-76
2022/07/13 11:51:54;;;;;;;2.58;0.80;;;31.80;48.80;;;;;;5010782;28;20053;-74
2022/07/13 11:54:22;;;;;;;3.92;0.80;;;31.50;48.20;;;;;;5012134;28;20477;-74
2022/07/13 11:56:49;;;;;;;3.38;0.82;;;31.20;48.60;;;;;;5023525;28;20077;-74
2022/07/13 11:59:33;;;;;;;3.70;0.73;;;30.70;49.00;;;;;;5010627;28;20137;-74
2022/07/13 12:01:59;;;;;;;1.73;0.90;;;30.50;50.30;;;;;;5010665;28;20042;-74
2022/07/13 12:04:28;;;;;;;3.42;0.98;;;30.70;50.60;;;;;;5009722;28;20056;-74
2022/07/13 12:07:17;;;;;;;3.60;0.93;;;30.90;51.70;;;;;;5010595;28;20414;-74
2022/07/13 12:09:56;;;;;;;3.13;1.10;;;30.90;50.60;;;;;;5008746;28;20084;-74
2022/07/13 12:12:27;;;;;;;3.88;0.73;;;31.10;53.10;;;;;;5008643;28;20128;-73
2022/07/13 12:14:55;;;;;;;4.82;1.60;;;31.50;52.60;;;;;;5044256;28;20057;-73
2022/07/13 12:17:21;;;;;;;3.22;1.20;;;31.60;51.70;;;;;;5011089;28;20065;-73
2022/07/13 12:19:47;;;;;;;2.95;1.13;;;31.70;51.60;;;;;;5027585;28;20050;-72
2022/07/13 12:22:13;;;;;;;4.55;1.08;;;31.10;50.40;;;;;;5008378;28;20171;-72
2022/07/13 12:24:44;;;;;;;5.10;1.10;;;30.70;52.20;;;;;;5008820;28;20517;-73
2022/07/13 12:27:29;;;;;;;3.03;0.70;;;30.70;52.90;;;;;;5010506;28;20099;-73
2022/07/13 12:30:11;;;;;;;4.65;1.30;;;30.80;53.70;;;;;;5038700;28;20054;-75
2022/07/13 12:32:57;;;;;;;2.22;1.20;;;31.00;52.40;;;;;;5011102;28;20100;-74
2022/07/13 12:35:30;;;;;;;3.15;1.17;;;30.80;52.80;;;;;;5042577;28;20053;-73
2022/07/13 12:38:01;;;;;;;4.60;1.10;;;30.70;53.70;;;;;;5009455;28;20490;-74
2022/07/13 12:40:43;;;;;;;2.35;1.00;;;30.50;53.80;;;;;;4993101;28;20061;-71
2022/07/13 12:43:36;;;;;;;2.67;1.20;;;30.50;55.80;;;;;;5008851;28;20153;-73
2022/07/13 12:46:03;;;;;;;1.90;0.88;;;30.60;53.20;;;;;;5007937;28;20050;-70
2022/07/13 12:48:35;;;;;;;3.92;1.05;;;30.80;53.90;;;;;;5010421;28;20050;-72
2022/07/13 12:51:08;;;;;;;2.50;1.27;;;30.90;52.80;;;;;;5009711;28;20050;-71
2022/07/13 12:53:53;;;;;;;2.60;1.00;;;30.50;52.70;;;;;;5011702;28;20442;-73
2022/07/13 12:56:24;;;;;;;3.45;0.90;;;30.40;52.80;;;;;;5039885;28;20081;-72
2022/07/13 12:58:53;;;;;;;4.53;1.30;;;30.50;53.80;;;;;;5039917;28;20046;-70
2022/07/13 13:01:26;;;;;;;3.45;0.93;;;30.70;53.10;;;;;;5008841;28;20050;-71